Castres-Mazamet Airport

LFCK · Tarn, Occitanie, 法国

罗盘
风向 的 风向 300° Castres-Mazamet Airport 14/32
风: 16 kt, 4 beaufort

15 kt

5 kt
改变
0 ft 1.000 2.000 3.000 4.000 5.000
Cloud Cloud Cloud Cloud Cloud Cloud Cloud Cloud
OVC 700
METAR LFCK 030900Z AUTO 30016KT 9999 OVC007 05/04 Q1003 BECMG 30015G25KT SCT013 BKN020

METAR Castres-Mazamet Airport - LFCK/DCM

Castres-Mazamet Airport是,法国中的中型机场。 该机场位于纬度43,55630和经度2,28918。 该机场有一条跑道: 14/32. 本场的ICAO机场代码为LFCK。 该机场的IATA代码为DCM。 机场在Bordeaux FIR中。

该航空气象观测是针对Castres-Mazamet Airport在2024年3月3日 10:00, 当地时间进行的。

机场观察

风向为300°,速度为16 kt。

可见度为10 km 或者更多。

有乌云密布在700 ft的高度。 破损或更高的上限为700 ft。

温度为5 °C,阵风为-2 °C。 露点为4 °C,相对湿度为93%。 海平面上的气压为1003 hPa (QNH)。

发展趋势

  • 变得

    风来自300°方向,速度为15 kt。 预计25 kt阵风。 疏云,零星散落的云朵在1.300 ft的高度 和 碎云在2.000 ft的高度.

白天

今天,太阳从07:22升起,在18:42降落。 这适用于Castres-Mazamet Airport,世界夏令时可能有所不同。 当地时间与世界标准时间之间的时差为+1 小时。 当前,没有夏令时有效。

公司介绍

在这个机场,你可以找到飞行俱乐部。 本场上唯一已知的公司是Aéroclub de Castres Mazamet。

体会

到Vliegles.nl去找飞行课程,跳伞和其他飞行体验。 浏览页面,了解Castres-Mazamet Airport附近所有可用的活动。 你也可以使用搜索功能来寻找你所在地附近的特定飞行课程、跳伞或其他飞行体验。

跑道

Id 标题 侧风 逆风 侧风 %
14/32 140°-320° 5 kt 15 kt 34 %

逆风成分最大的方向会被突出显示,并用于横风计算。 这并不一定意味着这个方向在使用。

乌云

700 ft OVC 乌云密布
1.300 ft SCT 变得 疏云,零星散落的云朵
2.000 ft BKN 变得 碎云

温度 & 天气

温度 5 °C
露点 4 °C
相对湿度 93%
风寒 -2 °C
Kp-index 0 (0-9)

白天

日出
07:22
中午
13:02
日落
18:42 (8:20)

小工具

你想在你的网站上有一个关于Castres-Mazamet Airport的当前航空天气(METAR)的小部件吗?

显示HTML代码
?>